Terminal Aerodrome Forecast
Issued by NWS Albany, NY

Home | Current Version | Previous Version | Text Only | Print | Product List | Glossary On
Versions: 1 2 3 4 5 6 7 8 9 10 11 12 13 14 15 16 17 18 19 20
668
FTUS41 KALY 211120
TAFPOU
TAF
KPOU 211120Z 2112/2212 22005KT P6SM FEW200 WS020/24035KT
     FM211400 22012G20KT P6SM FEW200
     FM212200 19004KT P6SM SCT200 WS020/22035KT=

USA.gov is the U.S. government's official web portal to all federal, state and local government web resources and services.